createdAt,value
2022-10-21T00:00:39.418Z,56.1
2022-10-21T00:01:41.423Z,56.3
2022-10-21T00:02:43.538Z,56.5
2022-10-21T00:03:45.478Z,56.5
2022-10-21T00:04:47.668Z,56.3
2022-10-21T00:05:49.467Z,56.1
2022-10-21T00:06:51.538Z,55.9
2022-10-21T00:07:53.480Z,56.1
2022-10-21T00:08:55.591Z,56.7
2022-10-21T00:09:57.417Z,57.1
2022-10-21T00:10:59.478Z,57.5
2022-10-21T00:12:01.491Z,57.8
2022-10-21T00:13:03.478Z,58.1
2022-10-21T00:14:05.443Z,58.3
2022-10-21T00:15:07.539Z,58.4
2022-10-21T00:16:09.490Z,58.4
2022-10-21T00:17:11.394Z,58.4
2022-10-21T00:18:13.500Z,58.2
2022-10-21T00:19:15.498Z,57.9
2022-10-21T00:20:17.575Z,57.8
2022-10-21T00:21:19.560Z,57.3
2022-10-21T00:22:21.458Z,57
2022-10-21T00:23:23.479Z,56.8
2022-10-21T00:24:25.477Z,56.6
2022-10-21T00:25:27.558Z,56.6
2022-10-21T00:26:29.537Z,56.2
2022-10-21T00:27:31.487Z,56.1
2022-10-21T00:28:33.523Z,56
2022-10-21T00:29:35.488Z,56.1
2022-10-21T00:30:37.458Z,56.3
2022-10-21T00:31:39.531Z,56.2
2022-10-21T00:32:41.477Z,55.8
2022-10-21T00:33:43.464Z,55.9
2022-10-21T00:34:45.433Z,56
2022-10-21T00:35:47.499Z,56
2022-10-21T00:36:49.537Z,55.7
2022-10-21T00:37:51.499Z,55.6
2022-10-21T00:38:53.538Z,55.3
2022-10-21T00:39:55.478Z,55
2022-10-21T00:40:57.558Z,54.9
2022-10-21T00:41:59.517Z,54.9
2022-10-21T00:43:01.538Z,55
2022-10-21T00:44:03.539Z,55
2022-10-21T00:45:05.460Z,55.1
2022-10-21T00:46:07.502Z,55.4
2022-10-21T00:47:09.477Z,55.7
2022-10-21T00:48:11.501Z,56.1
2022-10-21T00:49:13.557Z,56.4
2022-10-21T00:50:15.539Z,56.4
2022-10-21T00:51:17.481Z,56.3
2022-10-21T00:52:19.557Z,56.5
2022-10-21T00:53:21.518Z,56.5
2022-10-21T00:54:23.457Z,56.3
2022-10-21T00:55:25.558Z,56.1
2022-10-21T00:56:27.542Z,55.9
2022-10-21T00:57:29.478Z,55.8
2022-10-21T00:58:31.477Z,55.5
2022-10-21T00:59:33.478Z,55.4
2022-10-21T01:00:35.455Z,55.2
2022-10-21T01:01:37.479Z,55
2022-10-21T01:02:39.478Z,54.9
2022-10-21T01:03:41.423Z,55
2022-10-21T01:04:43.498Z,55
2022-10-21T01:05:45.648Z,54.8
2022-10-21T01:06:47.600Z,54.7
2022-10-21T01:07:49.498Z,54.4
2022-10-21T01:08:51.576Z,54.3
2022-10-21T01:09:53.598Z,54.2
2022-10-21T01:10:55.420Z,54
2022-10-21T01:11:57.498Z,53.9
2022-10-21T01:12:59.467Z,53.9
2022-10-21T01:14:01.558Z,53.7
2022-10-21T01:16:05.527Z,53.8
2022-10-21T01:17:15.549Z,54.2
2022-10-21T01:18:09.577Z,54.1
2022-10-21T01:19:11.539Z,54.2
2022-10-21T01:20:13.478Z,54.5
2022-10-21T01:21:15.526Z,54.7
2022-10-21T01:22:17.557Z,54.9
2022-10-21T01:23:19.478Z,54.9
2022-10-21T01:24:21.457Z,55
2022-10-21T01:25:23.538Z,55
2022-10-21T01:26:25.488Z,55
2022-10-21T01:27:27.475Z,54.9
2022-10-21T01:28:29.517Z,54.8
2022-10-21T01:29:31.762Z,54.7
2022-10-21T01:30:33.519Z,54.8
2022-10-21T01:31:35.533Z,54.8
2022-10-21T01:32:37.498Z,55.1
2022-10-21T01:33:39.539Z,54.9
2022-10-21T01:34:41.538Z,54.7
2022-10-21T01:35:43.538Z,55.2
2022-10-21T01:36:45.578Z,55.1
2022-10-21T01:37:47.541Z,55
2022-10-21T01:38:49.599Z,55.3
2022-10-21T01:39:51.558Z,55.4
2022-10-21T01:40:53.618Z,55.7
2022-10-21T01:41:55.611Z,55.8
2022-10-21T01:42:57.619Z,55.8
2022-10-21T01:43:59.497Z,55.8
2022-10-21T01:45:01.603Z,55.5
2022-10-21T01:46:03.644Z,55.5
2022-10-21T01:47:05.526Z,55.5
2022-10-21T01:48:07.558Z,55.6
2022-10-21T01:49:09.574Z,55.5
2022-10-21T01:50:11.558Z,55.3
2022-10-21T01:51:13.697Z,55.1
2022-10-21T01:52:15.489Z,55.1
2022-10-21T01:53:17.439Z,55.3
2022-10-21T01:54:19.538Z,55.1
2022-10-21T01:55:21.498Z,54.8
2022-10-21T01:56:23.502Z,54.7
2022-10-21T01:57:25.541Z,54.1
2022-10-21T01:58:27.578Z,53.4
2022-10-21T01:59:29.418Z,53.2
2022-10-21T02:03:49.625Z,52.4
2022-10-21T02:04:51.480Z,52.4
2022-10-21T02:05:53.833Z,52.4
2022-10-21T02:06:55.661Z,52.6
2022-10-21T02:07:57.559Z,52.6
2022-10-21T02:08:59.637Z,52.4
2022-10-21T02:10:01.620Z,52.5
2022-10-21T02:11:03.487Z,51.7
2022-10-21T02:12:05.408Z,52.4
2022-10-21T02:13:06.460Z,52.4
2022-10-21T02:14:08.500Z,52.1
2022-10-21T02:15:10.562Z,52
2022-10-21T02:16:12.621Z,51.9
2022-10-21T02:17:14.669Z,52
2022-10-21T02:18:16.640Z,51.9
2022-10-21T02:19:18.668Z,51.5
2022-10-21T02:20:21.001Z,51.3
2022-10-21T02:21:22.517Z,51.6
2022-10-21T02:22:24.522Z,51.7
2022-10-21T02:23:26.721Z,51.7
2022-10-21T02:24:28.582Z,51.8
2022-10-21T02:25:30.660Z,51.8
2022-10-21T02:26:32.621Z,51.7
2022-10-21T02:27:34.634Z,51.4
2022-10-21T02:28:36.741Z,51.2
2022-10-21T02:29:38.600Z,50.9
2022-10-21T02:30:40.622Z,50.5
2022-10-21T02:31:43.007Z,50.5
2022-10-21T02:32:44.640Z,50.4
2022-10-21T02:33:46.636Z,50.2
2022-10-21T02:34:48.624Z,50.3
2022-10-21T02:35:50.561Z,50.5
2022-10-21T02:36:52.660Z,50.8
2022-10-21T02:37:54.627Z,51.1
2022-10-21T02:38:56.581Z,51.1
2022-10-21T02:39:58.500Z,50.7
2022-10-21T02:41:00.640Z,50.8
2022-10-21T02:42:02.579Z,50.2
2022-10-21T02:43:04.580Z,49.9
2022-10-21T02:44:06.600Z,50.4
2022-10-21T02:45:08.584Z,50.7
2022-10-21T02:46:10.545Z,50.8
2022-10-21T02:47:12.593Z,50.9
2022-10-21T02:48:14.662Z,51.1
2022-10-21T02:49:16.540Z,51.3
2022-10-21T02:50:18.633Z,51.5
2022-10-21T02:51:20.747Z,51.7
2022-10-21T02:52:22.600Z,51.8
2022-10-21T02:53:24.513Z,52
2022-10-21T02:54:26.579Z,52.1
2022-10-21T02:55:28.560Z,51.9
2022-10-21T02:56:30.641Z,51.8
2022-10-21T02:57:32.544Z,51.4
2022-10-21T02:58:34.700Z,51.5
2022-10-21T02:59:36.483Z,51.4
2022-10-21T03:00:38.632Z,51.2
2022-10-21T03:01:40.578Z,51.2
2022-10-21T03:02:43.121Z,51.2
2022-10-21T03:03:44.672Z,51.1
2022-10-21T03:04:46.452Z,51.3
2022-10-21T03:05:48.654Z,51.1
2022-10-21T03:06:50.600Z,51
2022-10-21T03:07:52.700Z,50.9
2022-10-21T03:08:54.678Z,50.9
2022-10-21T03:09:56.518Z,51.2
2022-10-21T03:10:58.650Z,51.3
2022-10-21T03:12:00.541Z,51.4
2022-10-21T03:13:02.720Z,51.4
2022-10-21T03:14:04.569Z,51.4
2022-10-21T03:15:06.625Z,51.4
2022-10-21T03:16:08.593Z,51.5
2022-10-21T03:17:10.561Z,51.5
2022-10-21T03:18:12.620Z,51.5
2022-10-21T03:19:14.645Z,51.5
2022-10-21T03:20:16.681Z,51.6
2022-10-21T03:21:18.646Z,51.8
2022-10-21T03:22:20.560Z,51.9
2022-10-21T03:23:22.683Z,51.9
2022-10-21T03:24:28.646Z,51.8
2022-10-21T03:25:26.720Z,51.8
2022-10-21T03:26:28.700Z,52.2
2022-10-21T03:28:32.560Z,52.1
2022-10-21T03:29:34.638Z,52.7
2022-10-21T03:30:36.612Z,52.8
2022-10-21T03:31:38.580Z,52.7
2022-10-21T03:32:40.975Z,52.3
2022-10-21T03:33:43.163Z,52.3
2022-10-21T03:34:44.631Z,52.2
2022-10-21T03:35:46.601Z,52.5
2022-10-21T03:36:48.705Z,52.6
2022-10-21T03:37:50.712Z,52.7
2022-10-21T03:38:52.640Z,52.9
2022-10-21T03:39:54.800Z,53.1
2022-10-21T03:40:56.740Z,53.9
2022-10-21T03:41:58.582Z,54.7
2022-10-21T03:43:00.648Z,55.1
2022-10-21T03:44:02.643Z,55.3
2022-10-21T03:45:04.541Z,55.2
2022-10-21T03:46:06.580Z,55.1
2022-10-21T03:47:08.601Z,54.9
2022-10-21T03:48:10.679Z,54
2022-10-21T03:49:20.924Z,53.6
2022-10-21T03:50:15.744Z,53.2
2022-10-21T03:51:16.680Z,54.2
2022-10-21T03:52:18.647Z,54.9
2022-10-21T03:53:38.050Z,55.4
2022-10-21T03:54:22.581Z,55.6
2022-10-21T03:55:24.720Z,55.4
2022-10-21T03:56:26.699Z,54.4
2022-10-21T03:57:28.629Z,53.9
2022-10-21T03:58:30.739Z,53.5
2022-10-21T03:59:32.700Z,53.3
2022-10-21T04:00:34.629Z,53.1
2022-10-21T04:01:36.620Z,52.8
2022-10-21T04:02:39.050Z,52.6
2022-10-21T04:03:40.568Z,52.5
2022-10-21T04:04:42.641Z,52.2
2022-10-21T04:05:44.661Z,52.3
2022-10-21T04:06:46.808Z,52.1
2022-10-21T04:07:50.559Z,52.1
2022-10-21T04:08:50.724Z,52.6
2022-10-21T04:09:52.741Z,52.8
2022-10-21T04:11:56.660Z,52.9
2022-10-21T04:12:58.561Z,52.8
2022-10-21T04:14:00.580Z,52.9
2022-10-21T04:15:02.620Z,52.9
2022-10-21T04:16:04.654Z,52.6
2022-10-21T04:17:08.074Z,52.4
2022-10-21T04:18:08.600Z,52
2022-10-21T04:19:10.498Z,51.8
2022-10-21T04:20:12.602Z,51.7
2022-10-21T04:21:14.781Z,51.5
2022-10-21T04:22:16.601Z,51.5
2022-10-21T04:23:18.686Z,51.3
2022-10-21T04:24:20.680Z,50.9
2022-10-21T04:25:22.600Z,50.9
2022-10-21T04:26:24.642Z,51.3
2022-10-21T04:27:26.679Z,51.6
2022-10-21T04:28:28.660Z,51.7
2022-10-21T04:29:30.780Z,51.8
2022-10-21T04:30:32.663Z,51.6
2022-10-21T04:31:34.619Z,51.9
2022-10-21T04:32:37.186Z,52.1
2022-10-21T04:33:38.541Z,52.5
2022-10-21T04:34:40.641Z,52.5
2022-10-21T04:35:42.629Z,52.6
2022-10-21T04:36:44.781Z,52.7
2022-10-21T04:37:46.600Z,52.5
2022-10-21T04:38:48.715Z,52.2
2022-10-21T04:39:50.652Z,52
2022-10-21T04:40:52.644Z,51.7
2022-10-21T04:41:54.823Z,51.5
2022-10-21T04:42:56.739Z,51.5
2022-10-21T04:43:58.641Z,51.5
2022-10-21T04:45:00.722Z,51.5
2022-10-21T04:46:02.700Z,51.4
2022-10-21T04:47:04.653Z,51.2
2022-10-21T04:48:06.681Z,51.1
2022-10-21T04:49:08.680Z,50.9
2022-10-21T04:50:10.641Z,50.9
2022-10-21T04:51:12.743Z,50.9
2022-10-21T04:52:14.741Z,51.2
2022-10-21T04:53:16.640Z,51.3
2022-10-21T04:54:18.605Z,51
2022-10-21T04:55:20.508Z,51.4
2022-10-21T04:56:22.564Z,51.5
2022-10-21T04:57:24.699Z,51.6
2022-10-21T04:58:26.640Z,51.8
2022-10-21T04:59:28.700Z,52
2022-10-21T05:00:30.719Z,51.8
2022-10-21T05:01:32.859Z,51.9
2022-10-21T05:02:34.689Z,52.1
2022-10-21T05:03:36.699Z,52
2022-10-21T05:04:38.800Z,51.4
2022-10-21T05:05:40.624Z,51.6
2022-10-21T05:06:42.597Z,51.7
2022-10-21T05:07:44.699Z,51.4
2022-10-21T05:08:47.108Z,51.4
2022-10-21T05:09:48.609Z,51.3
2022-10-21T05:10:50.613Z,51.3
2022-10-21T05:11:52.565Z,51.1
2022-10-21T05:12:54.918Z,50.8
2022-10-21T05:13:56.742Z,50.7
2022-10-21T05:14:58.641Z,50.7
2022-10-21T05:16:00.582Z,50.7
2022-10-21T05:17:02.721Z,50.7
2022-10-21T05:18:04.581Z,50.5
2022-10-21T05:19:06.680Z,50.6
2022-10-21T05:20:08.803Z,50.7
2022-10-21T05:21:10.699Z,50.6
2022-10-21T05:22:12.621Z,50.7
2022-10-21T05:23:14.855Z,50.6
2022-10-21T05:24:16.720Z,50.7
2022-10-21T05:25:18.604Z,50.8
2022-10-21T05:26:20.645Z,51
2022-10-21T05:27:22.699Z,51
2022-10-21T05:28:24.645Z,51.1
2022-10-21T05:29:26.682Z,51.2
2022-10-21T05:30:28.700Z,51.3
2022-10-21T05:31:30.762Z,51.5
2022-10-21T05:32:32.655Z,51.4
2022-10-21T05:33:34.737Z,51.5
2022-10-21T05:34:36.741Z,51.3
2022-10-21T05:35:38.763Z,51
2022-10-21T05:36:40.623Z,50.5
2022-10-21T05:37:42.650Z,50.7
2022-10-21T05:38:44.645Z,50.5
2022-10-21T05:39:46.667Z,50.4
2022-10-21T05:40:48.746Z,50.4
2022-10-21T05:41:50.759Z,50.1
2022-10-21T05:42:52.570Z,49.6
2022-10-21T05:43:55.001Z,49.6
2022-10-21T05:44:56.639Z,49.4
2022-10-21T05:45:58.913Z,49.3
2022-10-21T05:47:00.815Z,49.4
2022-10-21T05:48:02.661Z,49.6
2022-10-21T05:49:04.620Z,49.3
2022-10-21T05:50:06.761Z,49.7
2022-10-21T05:51:09.026Z,49.6
2022-10-21T05:52:10.881Z,48.9
2022-10-21T05:53:12.603Z,48.8
2022-10-21T05:54:14.880Z,48.7
2022-10-21T05:55:16.780Z,48.7
2022-10-21T05:56:18.857Z,48.7
2022-10-21T05:57:20.762Z,48.7
2022-10-21T05:58:22.772Z,48.2
2022-10-21T05:59:25.190Z,48.8
2022-10-21T06:00:26.830Z,48.9
2022-10-21T06:01:29.129Z,49.1
2022-10-21T06:02:30.611Z,48.9
2022-10-21T06:03:32.600Z,48.9
2022-10-21T06:04:36.388Z,48.9
2022-10-21T06:05:36.642Z,48.6
2022-10-21T06:06:38.741Z,48.7
2022-10-21T06:07:41.178Z,48.4
2022-10-21T06:08:42.874Z,48.5
2022-10-21T06:09:44.641Z,48.7
2022-10-21T06:10:46.684Z,48.6
2022-10-21T06:11:48.745Z,48.4
2022-10-21T06:12:50.624Z,48.3
2022-10-21T06:13:52.662Z,47.9
2022-10-21T06:14:54.853Z,48.4
2022-10-21T06:15:56.845Z,48.8
2022-10-21T06:16:58.567Z,47.9
2022-10-21T06:18:00.631Z,48
2022-10-21T06:19:02.701Z,48.1
2022-10-21T06:20:04.680Z,47.9
2022-10-21T06:21:06.720Z,47.9
2022-10-21T06:22:08.701Z,48.1
2022-10-21T06:23:13.164Z,48
2022-10-21T06:24:15.575Z,48
2022-10-21T06:26:19.658Z,48.3
2022-10-21T06:27:21.675Z,48.4
2022-10-21T06:28:23.557Z,48.5
2022-10-21T06:29:25.759Z,48.6
2022-10-21T06:30:27.796Z,48.8
2022-10-21T06:31:29.657Z,48.9
2022-10-21T06:32:31.700Z,48.7
2022-10-21T06:33:33.717Z,48.9
2022-10-21T06:34:35.600Z,49
2022-10-21T06:35:37.677Z,49.1
2022-10-21T06:36:39.657Z,49.6
2022-10-21T06:37:41.753Z,49.8
2022-10-21T06:38:43.717Z,50.1
2022-10-21T06:39:45.572Z,50
2022-10-21T06:40:47.595Z,50.1
2022-10-21T06:41:49.677Z,50
2022-10-21T06:42:51.661Z,50.2
2022-10-21T06:43:53.717Z,49.9
2022-10-21T06:44:56.719Z,50.2
2022-10-21T06:45:57.597Z,50.1
2022-10-21T06:47:00.316Z,50.1
2022-10-21T06:48:01.721Z,50.3
2022-10-21T06:49:03.737Z,50.4
2022-10-21T06:50:05.699Z,50.6
2022-10-21T06:51:07.628Z,50.9
2022-10-21T06:52:09.758Z,51
2022-10-21T06:53:11.677Z,50.7
2022-10-21T06:54:13.718Z,50.6
2022-10-21T06:55:15.736Z,50.6
2022-10-21T06:56:17.677Z,50.4
2022-10-21T06:57:19.696Z,50.5
2022-10-21T06:58:21.902Z,50.6
2022-10-21T06:59:23.697Z,50.7
2022-10-21T07:00:25.804Z,51.1
2022-10-21T07:01:35.031Z,51.1
2022-10-21T07:02:29.697Z,51.4
2022-10-21T07:03:31.706Z,51.6
2022-10-21T07:04:33.542Z,51.9
2022-10-21T07:05:34.657Z,52.2
2022-10-21T07:06:36.659Z,52.1
2022-10-21T07:07:39.004Z,51.3
2022-10-21T07:08:47.098Z,51.4
2022-10-21T07:09:42.798Z,51.4
2022-10-21T07:10:44.677Z,50.8
2022-10-21T07:11:46.697Z,51
2022-10-21T07:12:48.658Z,50.8
2022-10-21T07:13:50.701Z,50.7
2022-10-21T07:14:52.631Z,50.4
2022-10-21T07:16:56.697Z,50
2022-10-21T07:17:58.691Z,49.3
2022-10-21T07:19:00.717Z,49.3
2022-10-21T07:20:02.740Z,48.9
2022-10-21T07:21:04.634Z,48.6
2022-10-21T07:22:06.697Z,48.8
2022-10-21T07:23:08.685Z,49
2022-10-21T07:24:10.701Z,48.8
2022-10-21T07:25:12.703Z,48.4
2022-10-21T07:26:14.820Z,47.8
2022-10-21T07:27:16.717Z,47.2
2022-10-21T07:28:18.637Z,46.6
2022-10-21T07:29:20.720Z,46.7
2022-10-21T07:30:22.618Z,47.4
2022-10-21T07:31:24.697Z,47.5
2022-10-21T07:32:26.737Z,48.1
2022-10-21T07:33:28.803Z,48.6
2022-10-21T07:34:30.677Z,48.6
2022-10-21T07:35:32.758Z,48.9
2022-10-21T07:36:34.670Z,48.6
2022-10-21T07:37:37.080Z,48.7
2022-10-21T07:38:38.737Z,48.5
2022-10-21T07:39:40.718Z,48.6
2022-10-21T07:40:42.677Z,48.8
2022-10-21T07:41:44.737Z,49.3
2022-10-21T07:42:46.737Z,48.9
2022-10-21T07:43:48.718Z,48.5
2022-10-21T07:44:50.781Z,48.1
2022-10-21T07:45:52.669Z,47.9
2022-10-21T07:46:55.177Z,47.7
2022-10-21T07:47:56.723Z,47.3
2022-10-21T07:48:58.738Z,47.3
2022-10-21T07:50:00.778Z,47.4
2022-10-21T07:51:02.737Z,47.2
2022-10-21T07:52:04.833Z,47.1
2022-10-21T07:53:12.269Z,47.1
2022-10-21T07:54:08.725Z,47.4
2022-10-21T07:55:10.757Z,47.5
2022-10-21T07:56:12.704Z,47.9
2022-10-21T07:57:14.718Z,48
2022-10-21T07:58:16.730Z,48.1
2022-10-21T07:59:18.718Z,48.1
2022-10-21T08:00:20.802Z,47.9
2022-10-21T08:01:22.759Z,47.8
2022-10-21T08:02:24.677Z,47.4
2022-10-21T08:03:26.718Z,46.9
2022-10-21T08:04:28.748Z,46.5
2022-10-21T08:05:30.593Z,46.1
2022-10-21T08:06:32.637Z,45.9
2022-10-21T08:07:34.778Z,45.5
2022-10-21T08:08:36.837Z,45.5
2022-10-21T08:09:38.758Z,46.2
2022-10-21T08:10:43.083Z,46
2022-10-21T08:11:44.784Z,45.9
2022-10-21T08:12:46.658Z,46
2022-10-21T08:13:48.698Z,46.3
2022-10-21T08:14:50.758Z,46.8
2022-10-21T08:15:52.710Z,46.7
2022-10-21T08:16:55.239Z,46.9
2022-10-21T08:17:56.780Z,47.1
2022-10-21T08:18:58.738Z,46.9
2022-10-21T08:20:00.793Z,46.8
2022-10-21T08:21:02.791Z,46.8
2022-10-21T08:22:04.797Z,46.7
2022-10-21T08:23:06.665Z,46.6
2022-10-21T08:24:08.797Z,46.5
2022-10-21T08:25:10.801Z,46.2
2022-10-21T08:26:12.703Z,45.4
2022-10-21T08:27:14.857Z,45.4
2022-10-21T08:28:16.805Z,45
2022-10-21T08:29:18.704Z,45.2
2022-10-21T08:30:20.798Z,45.3
2022-10-21T08:31:22.788Z,44.9
2022-10-21T08:32:24.757Z,44.6
2022-10-21T08:33:26.758Z,44.3
2022-10-21T08:34:28.777Z,44.4
2022-10-21T08:35:30.763Z,44.4
2022-10-21T08:36:32.703Z,44.7
2022-10-21T08:37:34.778Z,44.5
2022-10-21T08:38:36.739Z,44.1
2022-10-21T08:39:38.698Z,43.4
2022-10-21T08:40:40.619Z,43.3
2022-10-21T08:41:42.737Z,43.1
2022-10-21T08:42:44.698Z,42.9
2022-10-21T08:43:46.777Z,43.4
2022-10-21T08:44:48.718Z,42.9
2022-10-21T08:45:50.897Z,42.9
2022-10-21T08:46:52.830Z,43.1
2022-10-21T08:47:55.358Z,43.5
2022-10-21T08:48:56.761Z,43.9
2022-10-21T08:49:58.738Z,44.1
2022-10-21T08:51:00.698Z,44.1
2022-10-21T08:52:02.759Z,44.3
2022-10-21T08:53:04.837Z,44.3
2022-10-21T08:54:06.678Z,44.1
2022-10-21T08:55:08.697Z,44.3
2022-10-21T08:56:12.642Z,44.5
2022-10-21T08:57:12.857Z,44.4
2022-10-21T08:58:15.406Z,44.2
2022-10-21T08:59:16.846Z,44.4
2022-10-21T09:00:18.846Z,44.5
2022-10-21T09:01:20.782Z,44.3
2022-10-21T09:02:22.773Z,43.8
2022-10-21T09:03:24.970Z,43.8
2022-10-21T09:04:26.836Z,43.8
2022-10-21T09:05:28.738Z,43.7
2022-10-21T09:06:30.837Z,43.5
2022-10-21T09:07:32.702Z,43.2
2022-10-21T09:08:35.082Z,43.3
2022-10-21T09:09:36.777Z,43.5
2022-10-21T09:10:38.777Z,43.4
2022-10-21T09:11:40.778Z,43.4
2022-10-21T09:12:42.759Z,43.8
2022-10-21T09:13:44.818Z,43.5
2022-10-21T09:14:46.738Z,43.4
2022-10-21T09:15:48.796Z,43.3
2022-10-21T09:16:50.783Z,43.2
2022-10-21T09:17:52.761Z,42.9
2022-10-21T09:18:55.255Z,43.1
2022-10-21T09:19:56.777Z,43.4
2022-10-21T09:21:01.919Z,43.5
2022-10-21T09:22:10.749Z,43.7
2022-10-21T09:23:02.856Z,43.3
2022-10-21T09:24:04.717Z,43.3
2022-10-21T09:25:06.918Z,43.3
2022-10-21T09:26:08.717Z,43.4
2022-10-21T09:27:10.798Z,42.7
2022-10-21T09:28:12.723Z,42.5
2022-10-21T09:29:14.839Z,42.1
2022-10-21T09:30:16.952Z,42.1
2022-10-21T09:31:18.859Z,42.4
2022-10-21T09:32:20.831Z,42.4
2022-10-21T09:33:22.903Z,42.7
2022-10-21T09:34:24.797Z,42.9
2022-10-21T09:35:26.837Z,43.1
2022-10-21T09:36:28.797Z,43.1
2022-10-21T09:37:31.814Z,43.1
2022-10-21T09:38:32.698Z,43.2
2022-10-21T09:39:34.845Z,42.8
2022-10-21T09:40:36.978Z,42.5
2022-10-21T09:41:39.057Z,42.2
2022-10-21T09:42:47.175Z,42.7
2022-10-21T09:43:42.737Z,42.5
2022-10-21T09:44:44.779Z,42.5
2022-10-21T09:45:46.874Z,42.4
2022-10-21T09:46:48.825Z,42.4
2022-10-21T09:47:50.671Z,42.6
2022-10-21T09:50:06.728Z,42.3
2022-10-21T09:50:56.857Z,41.8
2022-10-21T09:51:58.757Z,41.6
2022-10-21T09:53:00.899Z,41.9
2022-10-21T09:54:02.858Z,42.2
2022-10-21T09:55:04.797Z,42.5
2022-10-21T09:56:06.800Z,42.8
2022-10-21T09:57:08.857Z,43.1
2022-10-21T09:58:10.838Z,43
2022-10-21T09:59:12.654Z,42.9
2022-10-21T10:00:14.903Z,43.6
2022-10-21T10:01:16.822Z,43.7
2022-10-21T10:02:18.977Z,42.9
2022-10-21T10:03:20.757Z,42.4
2022-10-21T10:04:22.729Z,42.3
2022-10-21T10:05:24.717Z,41.9
2022-10-21T10:06:26.857Z,41.4
2022-10-21T10:07:28.816Z,41.3
2022-10-21T10:08:30.884Z,41.2
2022-10-21T10:09:32.757Z,41
2022-10-21T10:10:34.797Z,41.2
2022-10-21T10:11:36.977Z,41.2
2022-10-21T10:12:39.032Z,41.4
2022-10-21T10:13:40.796Z,41.4
2022-10-21T10:14:42.777Z,41.4
2022-10-21T10:15:44.845Z,41.9
2022-10-21T10:16:46.816Z,42.8
2022-10-21T10:17:48.757Z,42
2022-10-21T10:18:50.818Z,41.6
2022-10-21T10:19:52.822Z,41.6
2022-10-21T10:20:55.397Z,40.4
2022-10-21T10:21:56.844Z,39.6
2022-10-21T10:22:58.731Z,39.7
2022-10-21T10:24:00.728Z,39.9
2022-10-21T10:25:02.798Z,40.4
2022-10-21T10:26:05.018Z,40
2022-10-21T10:27:06.825Z,40
2022-10-21T10:28:08.782Z,39.8
2022-10-21T10:29:10.817Z,39.8
2022-10-21T10:30:12.832Z,40.2
2022-10-21T10:31:14.837Z,40.4
2022-10-21T10:32:16.857Z,40.4
2022-10-21T10:33:18.809Z,40.4
2022-10-21T10:34:20.798Z,40.1
2022-10-21T10:35:22.933Z,39.6
2022-10-21T10:36:24.817Z,39.5
2022-10-21T10:37:26.805Z,39.2
2022-10-21T10:38:28.853Z,38.5
2022-10-21T10:39:30.841Z,38.2
2022-10-21T10:40:32.816Z,38.3
2022-10-21T10:41:34.901Z,38.3
2022-10-21T10:42:37.219Z,38.5
2022-10-21T10:43:38.861Z,39.2
2022-10-21T10:44:40.817Z,38.5
2022-10-21T10:45:42.857Z,38
2022-10-21T10:46:44.928Z,37.7
2022-10-21T10:47:46.785Z,37.6
2022-10-21T10:48:48.836Z,37.7
2022-10-21T10:49:50.899Z,37.6
2022-10-21T10:50:52.899Z,37.5
2022-10-21T10:51:54.877Z,37.8
2022-10-21T10:52:56.896Z,38
2022-10-21T10:53:58.859Z,37.8
2022-10-21T10:55:00.919Z,37.7
2022-10-21T10:56:02.837Z,36.9
2022-10-21T10:57:04.896Z,37.3
2022-10-21T10:58:11.628Z,37.3
2022-10-21T10:59:08.789Z,37.5
2022-10-21T11:00:10.967Z,37.7
2022-10-21T11:01:12.983Z,37.7
2022-10-21T11:02:14.918Z,37.9
2022-10-21T11:03:16.816Z,38.6
2022-10-21T11:04:18.838Z,37.3
2022-10-21T11:05:20.829Z,36.4
2022-10-21T11:06:22.934Z,35.8
2022-10-21T11:07:24.816Z,35.2
2022-10-21T11:08:28.760Z,35.1
2022-10-21T11:09:28.915Z,35.4
2022-10-21T11:10:30.962Z,35.3
2022-10-21T11:11:32.897Z,35.2
2022-10-21T11:12:34.936Z,35
2022-10-21T11:13:40.032Z,35.3
2022-10-21T11:14:38.871Z,35.9
2022-10-21T11:15:40.798Z,36.2
2022-10-21T11:16:57.223Z,36.6
2022-10-21T11:17:44.820Z,37.2
2022-10-21T11:18:49.581Z,36.4
2022-10-21T11:19:48.877Z,36.2
2022-10-21T11:20:50.899Z,35.9
2022-10-21T11:21:52.942Z,35.9
2022-10-21T11:22:54.959Z,35.8
2022-10-21T11:23:57.674Z,35.3
2022-10-21T11:24:58.822Z,35
2022-10-21T11:26:00.744Z,34.8
2022-10-21T11:27:02.916Z,35
2022-10-21T11:28:04.833Z,35.4
2022-10-21T11:29:06.839Z,35.9
2022-10-21T11:30:08.867Z,36.2
2022-10-21T11:31:10.819Z,36.1
2022-10-21T11:32:12.920Z,35.4
2022-10-21T11:33:15.037Z,35.8
2022-10-21T11:34:16.863Z,36.1
2022-10-21T11:35:18.817Z,36.2
2022-10-21T11:36:20.812Z,36.2
2022-10-21T11:37:23.085Z,35.9
2022-10-21T11:38:24.820Z,36.3
2022-10-21T11:39:26.857Z,36.8
2022-10-21T11:40:28.857Z,37.1
2022-10-21T11:41:30.795Z,36.5
2022-10-21T11:42:32.817Z,36.4
2022-10-21T11:43:34.855Z,37.2
2022-10-21T11:44:36.897Z,37.3
2022-10-21T11:45:38.839Z,36.7
2022-10-21T11:46:40.765Z,36.2
2022-10-21T11:47:42.857Z,36
2022-10-21T11:48:44.838Z,36
2022-10-21T11:49:46.877Z,36.1
2022-10-21T11:50:48.863Z,36.1
2022-10-21T11:51:50.837Z,36.3
2022-10-21T11:52:52.897Z,36.4
2022-10-21T11:53:54.877Z,36.2
2022-10-21T11:55:08.542Z,36.2
2022-10-21T11:55:58.799Z,36.5
2022-10-21T11:57:00.877Z,36.9
2022-10-21T11:58:02.917Z,36.7
2022-10-21T11:59:04.797Z,37.5
2022-10-21T12:00:06.911Z,37.7
2022-10-21T12:01:08.795Z,37.7
2022-10-21T12:02:10.957Z,37.5
2022-10-21T12:03:12.796Z,37.2
2022-10-21T12:04:15.027Z,38
2022-10-21T12:05:16.819Z,38.1
2022-10-21T12:06:18.866Z,38.3
2022-10-21T12:07:20.897Z,38
2022-10-21T12:08:22.962Z,37.4
2022-10-21T12:09:24.754Z,37.5
2022-10-21T12:10:26.799Z,37.9
2022-10-21T12:11:28.762Z,38.3
2022-10-21T12:12:30.778Z,38.5
2022-10-21T12:13:32.836Z,38.8
2022-10-21T12:14:34.937Z,39
2022-10-21T12:15:36.917Z,39.4
2022-10-21T12:16:38.818Z,39.3
2022-10-21T12:17:40.819Z,39.6
2022-10-21T12:18:42.776Z,39.4
2022-10-21T12:19:44.802Z,39.5
2022-10-21T12:20:46.738Z,39.8
2022-10-21T12:21:48.817Z,39.9
2022-10-21T12:22:50.937Z,39.7
2022-10-21T12:23:52.978Z,40
2022-10-21T12:24:54.877Z,39.9
2022-10-21T12:25:56.916Z,40
2022-10-21T12:26:58.800Z,39.5
2022-10-21T12:28:00.758Z,39.6
2022-10-21T12:29:03.031Z,39.6
2022-10-21T12:30:04.982Z,39.2
2022-10-21T12:31:06.755Z,39.2
2022-10-21T12:32:08.798Z,39
2022-10-21T12:33:10.817Z,39
2022-10-21T12:34:12.799Z,38.7
2022-10-21T12:35:14.916Z,38.8
2022-10-21T12:36:16.821Z,39
2022-10-21T12:37:18.937Z,38.4
2022-10-21T12:38:20.859Z,38.6
2022-10-21T12:39:22.922Z,38.3
2022-10-21T12:40:24.857Z,38.4
2022-10-21T12:41:26.897Z,38.4
2022-10-21T12:42:28.857Z,38.6
2022-10-21T12:43:30.746Z,39
2022-10-21T12:44:32.967Z,39.5
2022-10-21T12:45:34.949Z,39.7
2022-10-21T12:46:38.932Z,39.8
2022-10-21T12:47:39.140Z,39.1
2022-10-21T12:48:40.916Z,39.1
2022-10-21T12:49:42.856Z,39.4
2022-10-21T12:50:44.944Z,39.2
2022-10-21T12:51:46.788Z,39
2022-10-21T12:52:48.853Z,39.3
2022-10-21T12:54:53.018Z,38.5
2022-10-21T12:55:54.898Z,38.5
2022-10-21T12:56:56.840Z,38.5
2022-10-21T12:57:58.877Z,38.3
2022-10-21T12:59:00.814Z,38.5
2022-10-21T13:00:02.976Z,38.2
2022-10-21T13:01:05.014Z,38.1
2022-10-21T13:02:06.922Z,38
2022-10-21T13:03:08.878Z,38.3
2022-10-21T13:04:10.843Z,38.8
2022-10-21T13:05:12.805Z,39.2
2022-10-21T13:06:14.977Z,39.2
2022-10-21T13:07:16.847Z,39.6
2022-10-21T13:08:18.865Z,39.6
2022-10-21T13:09:20.804Z,39.6
2022-10-21T13:10:22.881Z,39.7
2022-10-21T13:11:24.876Z,39.6
2022-10-21T13:12:26.916Z,39.4
2022-10-21T13:13:28.918Z,39.4
2022-10-21T13:14:33.602Z,39.6
2022-10-21T13:15:32.936Z,40.1
2022-10-21T13:16:34.937Z,40
2022-10-21T13:17:36.802Z,39.4
2022-10-21T13:18:38.822Z,39.7
2022-10-21T13:19:40.917Z,40.1
2022-10-21T13:20:42.730Z,40.2
2022-10-21T13:21:43.820Z,40.5
2022-10-21T13:22:45.801Z,40.7
2022-10-21T13:23:47.878Z,40.8
2022-10-21T13:24:49.840Z,41
2022-10-21T13:25:51.841Z,41.6
2022-10-21T13:26:53.858Z,40.9
2022-10-21T13:27:55.854Z,40.4
2022-10-21T13:28:57.842Z,40.3
2022-10-21T13:29:59.896Z,40.7
2022-10-21T13:31:01.903Z,40.9
2022-10-21T13:32:03.899Z,40.9
2022-10-21T13:33:05.878Z,41.2
2022-10-21T13:34:07.878Z,41.2
2022-10-21T13:35:09.937Z,41.1
2022-10-21T13:36:11.817Z,41.1
2022-10-21T13:37:13.940Z,41.1
2022-10-21T13:38:15.879Z,41.1
2022-10-21T13:39:17.763Z,41.2
2022-10-21T13:40:19.817Z,40.7
2022-10-21T13:41:21.900Z,40.4
2022-10-21T13:42:24.911Z,40.7
2022-10-21T13:43:25.836Z,40.8
2022-10-21T13:44:27.729Z,40.6
2022-10-21T13:45:29.053Z,40.8
2022-10-21T13:46:30.838Z,41.3
2022-10-21T13:47:32.793Z,41.3
2022-10-21T13:48:34.836Z,41.2
2022-10-21T13:49:36.921Z,41
2022-10-21T13:50:39.059Z,41.2
2022-10-21T13:51:40.837Z,41.6
2022-10-21T13:52:42.905Z,41.1
2022-10-21T13:53:44.834Z,41
2022-10-21T13:54:46.817Z,40.9
2022-10-21T13:55:48.983Z,41.2
2022-10-21T13:56:50.977Z,40.9
2022-10-21T13:57:52.798Z,41
2022-10-21T13:58:54.837Z,41.2
2022-10-21T13:59:56.897Z,41.1
2022-10-21T14:00:59.150Z,41.6